Time;durP1;ratioP1;P1;durP2;ratioP2;P2;SDS_P1;SDS_P2;PMS_P1;PMS_P2;Temp;Humidity;BMP_temperature;BMP_pressure;BME280_temperature;BME280_humidity;BME280_pressure;Samples;Min_cycle;Max_cycle;Signal;HPM_P1;HPM_P2
2023/02/13 00:01:46;;;;;;;7.00;4.53;;;6.90;69.00;;;;;;2291109;54;20950;-84
2023/02/13 00:04:12;;;;;;;7.22;4.57;;;6.90;69.00;;;;;;2525312;53;21428;-84
2023/02/13 00:06:38;;;;;;;8.85;5.10;;;6.80;68.80;;;;;;2290851;54;20965;-82
2023/02/13 00:09:05;;;;;;;8.15;5.22;;;6.80;68.80;;;;;;2290756;54;20946;-82
2023/02/13 00:11:33;;;;;;;6.43;4.20;;;6.80;68.80;;;;;;2524903;53;20863;-83
2023/02/13 00:13:59;;;;;;;5.75;3.90;;;6.80;68.80;;;;;;2525657;53;20895;-84
2023/02/13 00:16:25;;;;;;;6.93;4.50;;;6.70;68.60;;;;;;2525145;53;20870;-82
2023/02/13 00:18:52;;;;;;;6.93;4.28;;;6.70;68.60;;;;;;2525414;52;20886;-82
2023/02/13 00:21:18;;;;;;;7.03;3.87;;;6.60;68.60;;;;;;2290962;54;20902;-83
2023/02/13 00:23:44;;;;;;;7.35;3.90;;;6.60;68.50;;;;;;2524368;53;20902;-83
2023/02/13 00:26:12;;;;;;;6.85;4.40;;;6.50;68.20;;;;;;2524816;54;21017;-83
2023/02/13 00:28:39;;;;;;;8.23;4.82;;;6.50;68.30;;;;;;2525677;54;21529;-83
2023/02/13 00:31:07;;;;;;;6.85;3.87;;;6.50;68.30;;;;;;2524556;54;20953;-84
2023/02/13 00:33:34;;;;;;;6.18;3.92;;;6.40;68.40;;;;;;2524203;54;21964;-83
2023/02/13 00:36:08;;;;;;;7.72;4.03;;;6.40;68.40;;;;;;2525213;54;20882;-84
2023/02/13 00:38:34;;;;;;;6.60;3.97;;;6.30;68.30;;;;;;2523845;54;20987;-84
2023/02/13 00:41:01;;;;;;;7.78;4.50;;;6.30;68.30;;;;;;2525359;53;20887;-82
2023/02/13 00:43:27;;;;;;;7.00;4.32;;;6.20;68.20;;;;;;2289945;54;20839;-83
2023/02/13 00:45:53;;;;;;;7.80;4.82;;;6.20;68.20;;;;;;2290600;54;20928;-83
2023/02/13 00:48:20;;;;;;;9.27;4.78;;;6.20;68.30;;;;;;2290514;54;20906;-83
2023/02/13 00:50:46;;;;;;;9.63;5.40;;;6.20;68.30;;;;;;2524401;54;20984;-84
2023/02/13 00:53:13;;;;;;;7.50;4.45;;;6.10;68.20;;;;;;2290746;54;20970;-83
2023/02/13 00:55:39;;;;;;;6.62;3.87;;;6.10;68.20;;;;;;2524669;54;20905;-83
2023/02/13 00:58:05;;;;;;;6.35;4.28;;;6.00;68.20;;;;;;2524718;54;21811;-83
2023/02/13 01:00:32;;;;;;;6.80;4.20;;;6.00;68.30;;;;;;2523904;54;21328;-83
2023/02/13 01:02:59;;;;;;;7.70;4.45;;;6.00;68.30;;;;;;2290548;54;20871;-84
2023/02/13 01:05:27;;;;;;;7.85;4.80;;;5.90;68.20;;;;;;2524282;53;20922;-85
2023/02/13 01:07:53;;;;;;;8.27;4.78;;;5.90;68.30;;;;;;2524505;54;20894;-84
2023/02/13 01:10:19;;;;;;;7.62;4.53;;;5.90;68.30;;;;;;2524443;54;21723;-83
2023/02/13 01:12:46;;;;;;;9.00;5.47;;;5.80;68.20;;;;;;2524507;54;20957;-83
2023/02/13 01:15:12;;;;;;;7.53;4.60;;;5.90;68.40;;;;;;2524424;53;21509;-83
2023/02/13 01:17:38;;;;;;;11.38;6.07;;;5.80;68.40;;;;;;2523628;54;20910;-82
2023/02/13 01:20:07;;;;;;;7.85;4.97;;;5.80;68.40;;;;;;2295010;54;20936;-85
2023/02/13 01:22:33;;;;;;;7.37;4.60;;;5.70;68.40;;;;;;2524596;52;20881;-85
2023/02/13 01:25:00;;;;;;;9.02;5.28;;;5.70;68.40;;;;;;2525450;53;20825;-84
2023/02/13 01:27:29;;;;;;;9.40;5.50;;;5.70;68.40;;;;;;2524341;53;20914;-85
2023/02/13 01:29:55;;;;;;;8.55;5.28;;;5.60;68.20;;;;;;2525802;53;20845;-86
2023/02/13 01:32:21;;;;;;;9.00;4.75;;;5.60;68.30;;;;;;2525311;53;20898;-84
2023/02/13 01:34:48;;;;;;;7.75;4.55;;;5.60;68.20;;;;;;2525092;53;20949;-85
2023/02/13 01:37:14;;;;;;;6.55;3.95;;;5.60;68.30;;;;;;2524951;53;21012;-84
2023/02/13 01:39:40;;;;;;;8.57;4.65;;;5.70;68.50;;;;;;2521509;53;20923;-84
2023/02/13 01:42:26;;;;;;;8.68;4.43;;;5.50;68.40;;;;;;2526550;53;21641;-85
2023/02/13 01:44:57;;;;;;;7.32;4.05;;;5.50;68.20;;;;;;2524659;53;20941;-84
2023/02/13 01:47:26;;;;;;;7.03;4.05;;;5.50;68.60;;;;;;2524519;53;20926;-84
2023/02/13 01:49:59;;;;;;;8.93;4.57;;;5.50;68.70;;;;;;2524966;53;20942;-84
2023/02/13 01:52:25;;;;;;;8.05;3.95;;;5.50;68.80;;;;;;2524431;53;20934;-84
2023/02/13 01:54:52;;;;;;;7.97;4.15;;;5.50;68.90;;;;;;2525176;53;20974;-84
2023/02/13 01:57:20;;;;;;;10.68;5.55;;;5.50;69.00;;;;;;2524642;53;20894;-83
2023/02/13 01:59:54;;;;;;;9.02;4.72;;;5.50;69.10;;;;;;2523864;53;20937;-86
2023/02/13 02:02:20;;;;;;;7.70;3.72;;;5.50;69.20;;;;;;2524397;53;21030;-83
2023/02/13 02:04:46;;;;;;;7.37;3.72;;;5.50;69.20;;;;;;2523724;53;20934;-85
2023/02/13 02:07:16;;;;;;;7.15;3.45;;;5.50;69.30;;;;;;2524891;53;20894;-82
2023/02/13 02:09:43;;;;;;;6.68;3.58;;;5.50;69.30;;;;;;2523640;53;20921;-83
2023/02/13 02:12:29;;;;;;;7.57;3.53;;;5.50;69.40;;;;;;2290546;54;21955;-83
2023/02/13 02:14:57;;;;;;;6.25;3.28;;;5.50;69.10;;;;;;2524486;53;20950;-84
2023/02/13 02:17:23;;;;;;;5.80;2.95;;;5.50;69.30;;;;;;2524539;53;22079;-82
2023/02/13 02:20:13;;;;;;;7.87;2.90;;;5.50;69.30;;;;;;2524289;53;20918;-84
2023/02/13 02:25:08;;;;;;;5.95;3.15;;;5.60;69.10;;;;;;2524175;53;20978;-84
2023/02/13 02:27:39;;;;;;;;;;;5.60;68.80;;;;;;2527873;53;21216;-84
2023/02/13 02:31:58;;;;;;;5.90;3.22;;;5.60;68.20;;;;;;2290485;54;20079;-83
2023/02/13 02:35:48;;;;;;;7.72;3.87;;;5.50;67.90;;;;;;2523120;54;20902;-82
2023/02/13 02:39:11;;;;;;;9.93;5.00;;;5.50;67.90;;;;;;2524832;53;20898;-84
2023/02/13 02:53:32;;;;;;;9.77;5.03;;;5.40;67.80;;;;;;2523500;53;20973;-83
2023/02/13 02:56:41;;;;;;;9.25;4.93;;;5.30;68.20;;;;;;2524290;53;21058;-85
2023/02/13 03:07:30;;;;;;;10.95;6.37;;;5.10;67.80;;;;;;2524969;53;20986;-85
2023/02/13 03:22:17;;;;;;;11.10;6.18;;;5.00;67.80;;;;;;2525342;53;20925;-83
2023/02/13 03:24:57;;;;;;;;;;;4.90;67.70;;;;;;2528321;54;21791;-84
2023/02/13 03:32:02;;;;;;;9.85;4.12;;;4.70;66.90;;;;;;2524012;53;21487;-85
2023/02/13 03:37:53;;;;;;;7.50;3.92;;;4.60;66.90;;;;;;2522633;53;20933;-83
2023/02/13 03:40:36;;;;;;;8.18;4.03;;;4.60;67.50;;;;;;2523848;54;20950;-85
2023/02/13 03:43:11;;;;;;;5.80;2.65;;;4.50;67.40;;;;;;2524343;54;21414;-83
2023/02/13 03:45:55;;;;;;;5.25;2.60;;;4.50;67.70;;;;;;2524112;55;21034;-84
2023/02/13 03:51:24;;;;;;;6.53;3.33;;;4.40;67.80;;;;;;2524332;54;21322;-83
2023/02/13 03:53:54;;;;;;;6.82;3.30;;;4.40;68.00;;;;;;2289802;54;21015;-83
2023/02/13 03:59:15;;;;;;;5.47;2.70;;;4.40;68.00;;;;;;2523964;54;20965;-84
2023/02/13 04:01:50;;;;;;;6.43;2.92;;;4.30;68.00;;;;;;2523716;54;20949;-84
2023/02/13 04:04:37;;;;;;;6.62;3.33;;;4.30;68.00;;;;;;2523276;54;20993;-84
2023/02/13 04:07:06;;;;;;;6.22;3.00;;;4.30;67.90;;;;;;2523816;54;21844;-84
2023/02/13 04:09:34;;;;;;;6.05;2.90;;;4.30;67.90;;;;;;2522874;54;20894;-83
2023/02/13 04:12:19;;;;;;;5.80;2.87;;;4.30;67.90;;;;;;2523318;54;20926;-82
2023/02/13 04:14:54;;;;;;;4.78;2.25;;;4.20;67.60;;;;;;2289958;54;20886;-84
2023/02/13 04:17:31;;;;;;;7.20;3.22;;;4.20;67.70;;;;;;2523128;54;20977;-84
2023/02/13 04:19:58;;;;;;;7.68;4.12;;;4.20;67.60;;;;;;2522930;54;20961;-83
2023/02/13 04:22:24;;;;;;;11.30;4.43;;;4.10;67.50;;;;;;2523836;54;20878;-83
2023/02/13 04:24:50;;;;;;;10.13;4.95;;;4.10;67.50;;;;;;2524260;54;20909;-84
2023/02/13 04:27:17;;;;;;;11.00;5.72;;;4.10;67.50;;;;;;2290470;54;21352;-83
2023/02/13 04:29:43;;;;;;;12.05;5.93;;;4.10;67.50;;;;;;2523632;54;20898;-84
2023/02/13 04:32:10;;;;;;;10.30;5.22;;;4.00;67.50;;;;;;2523686;54;20914;-83
2023/02/13 04:34:36;;;;;;;12.85;5.22;;;4.00;67.60;;;;;;2523757;54;20953;-82
2023/02/13 04:37:02;;;;;;;12.45;6.20;;;4.00;67.70;;;;;;2290659;54;20807;-85
2023/02/13 04:39:29;;;;;;;14.07;6.15;;;4.00;67.60;;;;;;2524223;53;20941;-85
2023/02/13 04:41:55;;;;;;;11.90;5.72;;;3.90;67.60;;;;;;2524527;53;20882;-85
2023/02/13 04:44:21;;;;;;;10.65;5.40;;;3.90;67.60;;;;;;2522733;53;20941;-83
2023/02/13 04:46:48;;;;;;;14.15;6.70;;;3.90;67.60;;;;;;2522385;54;20887;-82
2023/02/13 04:49:14;;;;;;;11.82;5.85;;;3.90;67.60;;;;;;2523156;54;20898;-83
2023/02/13 04:51:40;;;;;;;14.77;7.10;;;3.80;67.50;;;;;;2290249;54;20918;-84
2023/02/13 04:54:07;;;;;;;16.00;7.82;;;3.80;67.60;;;;;;2522622;54;20966;-83
2023/02/13 04:56:33;;;;;;;13.05;6.95;;;3.80;68.30;;;;;;2522979;54;20937;-84
2023/02/13 04:59:00;;;;;;;10.82;5.57;;;3.80;67.70;;;;;;2522362;54;20957;-82
2023/02/13 05:01:26;;;;;;;12.73;6.68;;;3.80;67.70;;;;;;2522661;54;20914;-82
2023/02/13 05:03:52;;;;;;;12.43;6.80;;;3.80;67.70;;;;;;2289294;54;20974;-83
2023/02/13 05:06:19;;;;;;;12.05;6.50;;;3.70;67.60;;;;;;2521652;54;20915;-82
2023/02/13 05:08:45;;;;;;;11.77;7.15;;;3.70;67.50;;;;;;2521168;54;21029;-83
2023/02/13 05:11:11;;;;;;;13.73;8.00;;;3.70;67.60;;;;;;2296362;54;20968;-83
2023/02/13 05:13:43;;;;;;;14.68;7.40;;;3.80;67.70;;;;;;2518588;54;21914;-83
2023/02/13 05:16:10;;;;;;;12.13;6.43;;;3.70;67.70;;;;;;2522407;54;21467;-82
2023/02/13 05:18:36;;;;;;;15.05;7.57;;;3.70;67.90;;;;;;2522081;54;21376;-82
2023/02/13 05:23:47;;;;;;;16.17;8.35;;;3.60;68.00;;;;;;2289173;54;20977;-84
2023/02/13 05:26:13;;;;;;;16.50;8.45;;;3.70;68.10;;;;;;2521976;54;21004;-81
2023/02/13 05:31:24;;;;;;;13.27;7.10;;;3.60;68.30;;;;;;2523384;54;20889;-81
2023/02/13 05:33:50;;;;;;;19.58;7.57;;;3.70;68.40;;;;;;2523127;54;20977;-82
2023/02/13 05:36:17;;;;;;;14.10;7.60;;;3.70;68.40;;;;;;2523439;54;20918;-84
2023/02/13 05:38:43;;;;;;;17.60;8.98;;;3.70;68.50;;;;;;2289917;54;21423;-83
2023/02/13 05:41:12;;;;;;;18.00;8.48;;;3.70;68.60;;;;;;2523872;54;20906;-83
2023/02/13 05:43:38;;;;;;;16.55;9.55;;;3.70;68.70;;;;;;2523022;54;21033;-82
2023/02/13 05:46:05;;;;;;;20.88;8.35;;;3.70;68.70;;;;;;2523580;54;20921;-84
2023/02/13 05:48:31;;;;;;;15.55;9.20;;;3.70;68.80;;;;;;2289761;54;21201;-83
2023/02/13 05:50:58;;;;;;;16.45;9.15;;;3.80;68.90;;;;;;2522916;54;21530;-84
2023/02/13 05:53:25;;;;;;;16.45;8.70;;;3.80;68.90;;;;;;2288994;54;20929;-83
2023/02/13 05:55:51;;;;;;;18.67;9.68;;;3.80;68.90;;;;;;2522831;54;20936;-84
2023/02/13 05:58:20;;;;;;;17.92;8.98;;;3.80;68.90;;;;;;2288962;54;20997;-83
2023/02/13 06:00:47;;;;;;;15.57;8.88;;;3.80;68.90;;;;;;2289253;54;21881;-83
2023/02/13 06:03:15;;;;;;;14.18;8.32;;;3.80;69.00;;;;;;2522574;54;21009;-82
2023/02/13 06:05:41;;;;;;;14.30;8.70;;;3.80;69.00;;;;;;2522799;54;20934;-82
2023/02/13 06:08:08;;;;;;;22.17;9.25;;;3.80;69.10;;;;;;2522873;54;20910;-82
2023/02/13 06:10:34;;;;;;;13.43;7.87;;;3.90;69.20;;;;;;2523362;54;20977;-83
2023/02/13 06:13:01;;;;;;;13.38;8.50;;;3.90;69.20;;;;;;2523230;54;20997;-83
2023/02/13 06:15:27;;;;;;;13.18;7.90;;;3.90;69.30;;;;;;2523026;54;20910;-82
2023/02/13 06:17:54;;;;;;;14.57;8.13;;;4.00;69.30;;;;;;2523289;54;21545;-83
2023/02/13 06:20:20;;;;;;;12.90;7.32;;;4.00;69.40;;;;;;2290903;54;21829;-83
2023/02/13 06:22:50;;;;;;;13.30;8.00;;;4.00;69.50;;;;;;2523275;54;21395;-85
2023/02/13 06:25:16;;;;;;;15.45;7.65;;;4.00;69.50;;;;;;2523153;54;20929;-84
2023/02/13 06:27:42;;;;;;;14.43;7.35;;;4.10;70.30;;;;;;2523495;54;21054;-81
2023/02/13 06:30:09;;;;;;;13.18;7.50;;;4.10;69.60;;;;;;2290556;54;20978;-81
2023/02/13 06:32:35;;;;;;;14.55;8.80;;;4.10;69.70;;;;;;2290203;54;21278;-81
2023/02/13 06:35:02;;;;;;;13.23;7.90;;;4.20;70.50;;;;;;2523112;54;20866;-83
2023/02/13 06:37:31;;;;;;;15.80;7.82;;;4.20;69.80;;;;;;2289354;54;20922;-82
2023/02/13 06:39:57;;;;;;;13.82;7.95;;;4.20;69.80;;;;;;2289892;54;20894;-83
2023/02/13 06:42:23;;;;;;;17.05;7.93;;;4.30;69.90;;;;;;2523595;54;21473;-82
2023/02/13 06:44:50;;;;;;;15.77;8.52;;;4.30;69.90;;;;;;2290165;54;20918;-83
2023/02/13 06:47:16;;;;;;;14.57;8.02;;;4.30;70.00;;;;;;2522738;54;21408;-85
2023/02/13 06:49:42;;;;;;;13.50;8.38;;;4.40;70.10;;;;;;2290263;54;20890;-83
2023/02/13 06:52:09;;;;;;;16.33;8.13;;;4.40;70.10;;;;;;2523631;53;20926;-83
2023/02/13 06:54:35;;;;;;;15.55;8.13;;;4.50;70.30;;;;;;2522939;54;20882;-83
2023/02/13 06:57:12;;;;;;;13.65;8.38;;;4.50;70.30;;;;;;2523561;54;20930;-83
2023/02/13 06:59:38;;;;;;;13.52;7.95;;;4.50;70.30;;;;;;2523614;54;20930;-85
2023/02/13 07:02:05;;;;;;;11.40;6.25;;;4.60;70.30;;;;;;2523790;54;20914;-83
2023/02/13 07:04:31;;;;;;;11.15;6.12;;;4.60;70.30;;;;;;2289581;54;21545;-85
2023/02/13 07:06:57;;;;;;;16.58;7.00;;;4.70;70.50;;;;;;2523687;54;20909;-83
2023/02/13 07:09:24;;;;;;;14.07;7.68;;;4.70;70.50;;;;;;2522888;54;20973;-82
2023/02/13 07:11:50;;;;;;;11.88;6.93;;;4.70;70.30;;;;;;2523542;54;21403;-83
2023/02/13 07:14:18;;;;;;;10.85;6.30;;;4.80;70.50;;;;;;2524985;54;20893;-82
2023/02/13 07:16:44;;;;;;;12.75;6.18;;;4.90;70.50;;;;;;2523248;54;20970;-83
2023/02/13 07:19:11;;;;;;;10.85;6.45;;;4.90;70.50;;;;;;2523614;54;21476;-82
2023/02/13 07:21:37;;;;;;;10.68;5.80;;;4.90;70.40;;;;;;2524974;54;21081;-83
2023/02/13 07:24:04;;;;;;;11.30;6.12;;;4.90;70.30;;;;;;2289919;54;20938;-84
2023/02/13 07:26:33;;;;;;;12.15;6.43;;;5.00;70.30;;;;;;2524150;52;20882;-83
2023/02/13 07:29:04;;;;;;;10.98;5.87;;;5.00;70.30;;;;;;2524115;53;20974;-81
2023/02/13 07:31:38;;;;;;;13.35;6.50;;;5.00;70.30;;;;;;2524427;54;20867;-82
2023/02/13 07:34:04;;;;;;;12.10;6.22;;;5.10;70.30;;;;;;2523521;54;20801;-82
2023/02/13 07:36:30;;;;;;;11.80;6.05;;;5.10;70.30;;;;;;2523503;54;20926;-82
2023/02/13 07:38:56;;;;;;;10.02;5.78;;;5.10;70.30;;;;;;2523949;54;20926;-84
2023/02/13 07:41:25;;;;;;;12.13;5.85;;;5.10;70.30;;;;;;2524224;54;20948;-83
2023/02/13 07:43:52;;;;;;;11.20;5.95;;;5.20;70.30;;;;;;2523833;54;20949;-83
2023/02/13 07:46:18;;;;;;;10.93;6.05;;;5.20;70.30;;;;;;2523915;54;20990;-83
2023/02/13 07:48:44;;;;;;;12.60;6.37;;;5.20;70.30;;;;;;2290036;54;20898;-83
2023/02/13 07:51:11;;;;;;;13.73;6.72;;;5.20;70.10;;;;;;2523896;54;20918;-83
2023/02/13 07:53:37;;;;;;;12.30;5.57;;;5.30;70.10;;;;;;2523345;54;20910;-84
2023/02/13 07:56:07;;;;;;;10.60;5.78;;;5.30;70.00;;;;;;2290434;54;20953;-84
2023/02/13 07:58:35;;;;;;;12.02;6.28;;;5.30;70.00;;;;;;2523893;54;20914;-83
2023/02/13 08:01:11;;;;;;;16.55;6.22;;;5.30;70.00;;;;;;2524058;54;20934;-82
2023/02/13 08:03:38;;;;;;;11.20;6.30;;;5.30;70.10;;;;;;2523648;53;20915;-82
2023/02/13 08:06:04;;;;;;;12.23;6.53;;;5.30;70.10;;;;;;2524198;53;21759;-84
2023/02/13 08:08:30;;;;;;;9.25;5.72;;;5.40;70.10;;;;;;2523570;53;21534;-82
2023/02/13 08:13:46;;;;;;;14.55;7.45;;;5.40;70.00;;;;;;2523972;54;20903;-82
2023/02/13 08:16:12;;;;;;;10.07;5.78;;;5.40;70.10;;;;;;2523807;54;20916;-84
2023/02/13 08:18:38;;;;;;;12.82;6.25;;;5.40;70.10;;;;;;2524289;54;21061;-85
2023/02/13 08:21:05;;;;;;;14.80;5.90;;;5.50;70.10;;;;;;2290532;54;20800;-84
2023/02/13 08:23:31;;;;;;;12.23;5.70;;;5.50;70.00;;;;;;2523360;54;20965;-83
2023/02/13 08:26:00;;;;;;;9.88;5.57;;;5.50;70.00;;;;;;2290649;54;20954;-82
2023/02/13 08:28:30;;;;;;;12.30;6.25;;;5.50;69.90;;;;;;2524005;53;20930;-85
2023/02/13 08:30:56;;;;;;;11.80;6.22;;;5.50;69.80;;;;;;2524678;54;20982;-84
2023/02/13 08:33:23;;;;;;;13.18;6.85;;;5.50;70.00;;;;;;2290864;54;20998;-85
2023/02/13 08:35:49;;;;;;;13.30;7.35;;;5.50;70.00;;;;;;2524148;54;20926;-83
2023/02/13 08:38:15;;;;;;;11.43;6.20;;;5.70;70.30;;;;;;2523956;53;20934;-83
2023/02/13 08:40:42;;;;;;;13.62;7.28;;;5.60;70.20;;;;;;2290965;54;20930;-84
2023/02/13 08:43:08;;;;;;;11.82;6.82;;;5.70;70.40;;;;;;2290690;54;21021;-84
2023/02/13 08:45:35;;;;;;;12.20;7.18;;;5.70;70.20;;;;;;2523814;54;21057;-85
2023/02/13 08:48:02;;;;;;;10.50;6.37;;;5.70;70.10;;;;;;2524020;54;20977;-83
2023/02/13 08:50:29;;;;;;;11.10;6.28;;;5.70;69.90;;;;;;2524036;54;21610;-82
2023/02/13 08:52:56;;;;;;;16.55;7.62;;;5.70;69.90;;;;;;2524199;54;20950;-83
2023/02/13 08:55:23;;;;;;;15.90;8.20;;;5.70;69.90;;;;;;2523728;53;20870;-84
2023/02/13 08:57:49;;;;;;;14.43;7.30;;;5.80;70.10;;;;;;2524240;54;20950;-83
2023/02/13 09:00:15;;;;;;;15.63;7.30;;;5.80;70.00;;;;;;2524991;53;21047;-83
2023/02/13 09:02:42;;;;;;;17.17;7.97;;;5.70;69.90;;;;;;2290373;54;21471;-85
2023/02/13 09:05:08;;;;;;;18.23;7.82;;;5.80;70.00;;;;;;2524330;54;20954;-83
2023/02/13 09:07:34;;;;;;;16.42;8.98;;;5.80;70.10;;;;;;2525389;54;22156;-82
2023/02/13 09:10:01;;;;;;;19.02;9.93;;;5.80;70.10;;;;;;2290294;54;20972;-84
2023/02/13 09:12:27;;;;;;;16.08;9.60;;;5.90;70.30;;;;;;2524176;53;20954;-82
2023/02/13 09:14:54;;;;;;;16.75;8.98;;;5.90;70.40;;;;;;2524192;53;21057;-85
2023/02/13 09:17:20;;;;;;;18.85;8.88;;;5.80;70.30;;;;;;2524384;54;20930;-82
2023/02/13 09:19:46;;;;;;;13.15;8.05;;;6.00;70.60;;;;;;2524334;54;20966;-83
2023/02/13 09:22:15;;;;;;;10.82;6.25;;;6.00;70.50;;;;;;2290529;54;21018;-83
2023/02/13 09:24:42;;;;;;;12.75;7.03;;;6.10;70.60;;;;;;2524762;54;20898;-85
2023/02/13 09:27:09;;;;;;;17.45;10.23;;;6.10;70.60;;;;;;2524244;54;20910;-84
2023/02/13 09:29:35;;;;;;;15.50;9.80;;;6.10;70.60;;;;;;2523965;54;21273;-83
2023/02/13 09:32:03;;;;;;;20.35;11.80;;;6.30;70.90;;;;;;2290591;54;20942;-83
2023/02/13 09:34:29;;;;;;;20.30;11.15;;;6.20;70.90;;;;;;2290303;54;21464;-84
2023/02/13 09:36:55;;;;;;;15.90;9.35;;;6.30;71.10;;;;;;2290419;54;20962;-83
2023/02/13 09:39:22;;;;;;;16.27;9.15;;;6.40;71.20;;;;;;2523820;54;20890;-82
2023/02/13 09:41:49;;;;;;;14.70;8.38;;;6.40;70.90;;;;;;2523939;54;20918;-84
2023/02/13 09:44:32;;;;;;;13.00;8.05;;;6.40;71.00;;;;;;2523845;53;20967;-83
2023/02/13 09:47:44;;;;;;;15.65;7.28;;;6.50;71.00;;;;;;2524713;54;21009;-83
2023/02/13 09:50:21;;;;;;;11.63;6.55;;;6.60;70.70;;;;;;2524114;54;20914;-83
2023/02/13 09:52:48;;;;;;;10.13;5.70;;;6.70;71.00;;;;;;2524264;54;20998;-83
2023/02/13 09:55:53;;;;;;;9.88;5.70;;;6.70;71.10;;;;;;2524351;54;21021;-83
2023/02/13 09:58:42;;;;;;;9.68;5.37;;;6.80;71.00;;;;;;2524182;54;20953;-83
2023/02/13 10:01:51;;;;;;;9.23;5.30;;;6.80;70.90;;;;;;2290662;54;20859;-84
2023/02/13 10:05:57;;;;;;;10.23;5.93;;;6.90;70.80;;;;;;2524340;53;20886;-84
2023/02/13 10:12:56;;;;;;;12.00;6.75;;;7.00;70.70;;;;;;2524709;53;21778;-83
2023/02/13 10:15:53;;;;;;;10.90;5.57;;;7.00;70.30;;;;;;2524920;54;20943;-84
2023/02/13 10:18:24;;;;;;;11.65;6.03;;;7.10;70.50;;;;;;2294272;54;20927;-84
2023/02/13 10:20:51;;;;;;;12.95;6.95;;;7.10;70.60;;;;;;2525618;53;20943;-82
2023/02/13 10:24:11;;;;;;;11.90;6.60;;;7.20;70.70;;;;;;2524017;53;20899;-83
2023/02/13 10:26:42;;;;;;;12.02;5.95;;;7.20;70.70;;;;;;2524203;53;21150;-83
2023/02/13 10:32:12;;;;;;;13.40;7.45;;;7.30;70.90;;;;;;2524938;53;20808;-83
2023/02/13 10:34:42;;;;;;;12.85;7.18;;;7.30;71.20;;;;;;2290738;54;20969;-84
2023/02/13 10:37:19;;;;;;;18.73;9.02;;;7.40;71.30;;;;;;2525526;54;21006;-84
2023/02/13 10:39:50;;;;;;;24.73;11.45;;;7.40;71.20;;;;;;2525117;53;20954;-83
2023/02/13 10:42:38;;;;;;;25.05;12.55;;;7.50;71.50;;;;;;2525547;54;21615;-83
2023/02/13 10:45:39;;;;;;;18.48;10.27;;;7.50;71.50;;;;;;2291747;54;21006;-85
2023/02/13 10:48:32;;;;;;;22.87;11.18;;;7.60;71.50;;;;;;2525838;54;21442;-85
2023/02/13 10:54:07;;;;;;;19.60;10.30;;;7.70;71.50;;;;;;2526073;54;21502;-82
2023/02/13 10:56:38;;;;;;;17.83;8.77;;;7.80;70.70;;;;;;2526828;53;20946;-83
2023/02/13 11:01:43;;;;;;;17.05;8.93;;;7.80;70.90;;;;;;2527294;53;21116;-84
2023/02/13 11:04:10;;;;;;;;;;;7.80;70.80;;;;;;2529961;53;20894;-83
2023/02/13 11:06:41;;;;;;;14.77;7.07;;;7.90;70.10;;;;;;2525761;54;20148;-84
2023/02/13 11:09:07;;;;;;;14.65;7.57;;;7.90;70.70;;;;;;2525999;54;20947;-83
2023/02/13 11:11:36;;;;;;;15.25;8.77;;;7.90;70.80;;;;;;2291552;54;20930;-82
2023/02/13 11:14:13;;;;;;;18.33;9.68;;;7.90;71.10;;;;;;2295655;54;20943;-83
2023/02/13 11:16:57;;;;;;;20.85;9.75;;;7.90;71.00;;;;;;2291326;54;22126;-83
2023/02/13 11:19:35;;;;;;;18.17;9.55;;;8.00;70.90;;;;;;2524057;54;20925;-83
2023/02/13 11:22:12;;;;;;;18.90;10.07;;;8.00;70.80;;;;;;2524004;54;20925;-84
2023/02/13 11:24:39;;;;;;;15.75;9.07;;;8.00;70.90;;;;;;2524067;53;20926;-82
2023/02/13 11:27:08;;;;;;;17.48;9.68;;;8.00;71.00;;;;;;2524793;54;20903;-83
2023/02/13 11:29:36;;;;;;;19.45;10.77;;;8.10;71.20;;;;;;2524086;54;20922;-83
2023/02/13 11:32:20;;;;;;;20.20;11.00;;;8.10;71.20;;;;;;2524758;54;21018;-83
2023/02/13 11:34:47;;;;;;;18.27;9.35;;;8.10;71.00;;;;;;2524395;53;20926;-84
2023/02/13 11:37:27;;;;;;;18.52;10.07;;;8.20;71.30;;;;;;2524540;54;20961;-82
2023/02/13 11:39:55;;;;;;;19.40;10.13;;;8.30;71.20;;;;;;2524105;54;21017;-82
2023/02/13 11:42:33;;;;;;;18.80;10.20;;;8.30;71.30;;;;;;2523352;54;20946;-83
2023/02/13 11:45:13;;;;;;;15.45;9.13;;;8.30;71.90;;;;;;2290175;54;21037;-84
2023/02/13 11:47:41;;;;;;;18.73;9.85;;;8.40;71.30;;;;;;2524416;53;20901;-83
2023/02/13 11:50:27;;;;;;;18.12;10.82;;;8.40;71.40;;;;;;2289362;54;20933;-82
2023/02/13 11:52:58;;;;;;;17.42;10.25;;;8.50;71.20;;;;;;2288918;54;20958;-82
2023/02/13 11:55:38;;;;;;;16.77;9.30;;;8.50;71.20;;;;;;2289056;54;20878;-81
2023/02/13 11:58:38;;;;;;;18.75;10.27;;;8.50;71.00;;;;;;2522078;54;20913;-83
2023/02/13 12:01:24;;;;;;;20.35;10.05;;;8.50;70.50;;;;;;2290496;54;21967;-83
2023/02/13 12:04:01;;;;;;;17.77;9.82;;;8.60;70.70;;;;;;2289799;54;21982;-83
2023/02/13 12:06:27;;;;;;;17.50;10.13;;;8.60;70.80;;;;;;2522882;54;20949;-82
2023/02/13 12:08:54;;;;;;;20.92;10.50;;;8.60;70.90;;;;;;2521749;54;20990;-82
2023/02/13 12:11:53;;;;;;;19.23;10.05;;;8.70;71.00;;;;;;2521502;54;21014;-83
2023/02/13 12:14:21;;;;;;;17.42;10.07;;;8.70;70.70;;;;;;2522159;54;20934;-84
2023/02/13 12:17:02;;;;;;;20.58;11.00;;;8.70;70.80;;;;;;2290437;54;21835;-85
2023/02/13 12:19:49;;;;;;;19.35;10.45;;;8.70;70.70;;;;;;2522771;54;21478;-86
2023/02/13 12:22:49;;;;;;;20.70;11.00;;;8.70;70.60;;;;;;2290523;54;20862;-85
2023/02/13 12:26:47;;;;;;;17.55;10.32;;;8.70;70.20;;;;;;2524178;54;21646;-85
2023/02/13 12:32:55;;;;;;;14.15;8.32;;;8.70;69.80;;;;;;2290251;54;20960;-85
2023/02/13 12:36:18;;;;;;;12.63;7.28;;;8.80;70.10;;;;;;2523584;54;20879;-83
2023/02/13 12:39:37;;;;;;;16.08;8.70;;;8.80;70.60;;;;;;2523868;54;20906;-82
2023/02/13 12:44:06;;;;;;;15.48;8.60;;;8.90;71.20;;;;;;2524226;54;20988;-84
2023/02/13 12:49:48;;;;;;;17.90;9.15;;;8.90;71.40;;;;;;2523145;54;20925;-84
2023/02/13 12:53:55;;;;;;;16.58;8.85;;;9.00;71.20;;;;;;2516968;54;20905;-84
2023/02/13 12:58:31;;;;;;;18.85;10.88;;;9.10;71.00;;;;;;2522967;54;20970;-83
2023/02/13 13:02:21;;;;;;;19.77;10.57;;;9.10;70.10;;;;;;2289678;54;20902;-85
2023/02/13 13:08:14;;;;;;;16.08;9.07;;;9.10;70.20;;;;;;2294837;55;20997;-87
2023/02/13 13:14:04;;;;;;;14.60;7.90;;;9.10;70.00;;;;;;2522477;54;21005;-84
2023/02/13 13:16:59;;;;;;;15.30;8.45;;;9.10;69.90;;;;;;2522249;54;22018;-84
2023/02/13 13:22:21;;;;;;;16.37;9.63;;;9.10;70.30;;;;;;2521731;54;22545;-86
2023/02/13 13:25:02;;;;;;;17.80;9.82;;;9.00;70.00;;;;;;2521122;54;20945;-86
2023/02/13 13:27:31;;;;;;;17.42;10.52;;;9.00;70.20;;;;;;2522008;54;20946;-83
2023/02/13 13:30:11;;;;;;;19.58;10.75;;;9.00;70.30;;;;;;2522424;54;20954;-84
2023/02/13 13:32:37;;;;;;;18.45;10.98;;;9.00;70.30;;;;;;2521815;54;20949;-83
2023/02/13 13:35:04;;;;;;;20.08;11.82;;;9.00;70.60;;;;;;2290541;54;21549;-84
2023/02/13 13:37:36;;;;;;;20.23;12.05;;;9.00;70.70;;;;;;2523288;54;20993;-84
2023/02/13 13:47:06;;;;;;;21.87;12.23;;;9.00;70.50;;;;;;2524162;54;20893;-85
2023/02/13 13:49:55;;;;;;;15.93;8.32;;;9.00;70.10;;;;;;2523273;54;20883;-86
2023/02/13 13:52:26;;;;;;;21.37;11.50;;;9.00;69.80;;;;;;2524463;54;20954;-84
2023/02/13 13:54:52;;;;;;;22.87;12.65;;;9.00;70.00;;;;;;2523655;54;20914;-84
2023/02/13 13:57:23;;;;;;;21.83;13.77;;;8.90;69.80;;;;;;2523881;53;20965;-84
2023/02/13 14:00:02;;;;;;;22.25;13.48;;;8.90;69.60;;;;;;2523276;54;20938;-85
2023/02/13 14:06:10;;;;;;;24.15;13.60;;;8.90;69.40;;;;;;2290005;54;21779;-84
2023/02/13 14:08:57;;;;;;;19.02;11.05;;;8.80;69.10;;;;;;2523167;54;20959;-85
2023/02/13 14:11:43;;;;;;;21.35;11.90;;;8.80;69.20;;;;;;2523034;53;20994;-84
2023/02/13 14:17:48;;;;;;;23.60;12.52;;;8.80;69.10;;;;;;2522034;54;21021;-83
2023/02/13 14:23:51;;;;;;;15.98;9.35;;;8.70;68.70;;;;;;2289918;54;20907;-83
2023/02/13 14:26:39;;;;;;;16.77;9.10;;;8.60;68.90;;;;;;2523740;54;22105;-85
2023/02/13 14:29:38;;;;;;;19.00;10.02;;;8.60;69.30;;;;;;2290320;54;20901;-84
2023/02/13 14:33:05;;;;;;;17.55;9.40;;;8.50;69.10;;;;;;2524104;54;21227;-84
2023/02/13 14:35:33;;;;;;;17.75;8.55;;;8.50;69.70;;;;;;2522701;54;20998;-84
2023/02/13 14:38:04;;;;;;;16.90;10.07;;;8.50;69.60;;;;;;2524205;53;20965;-84
2023/02/13 14:40:51;;;;;;;18.30;10.77;;;8.50;69.60;;;;;;2289929;54;20950;-85
2023/02/13 14:43:38;;;;;;;19.98;11.57;;;8.40;69.20;;;;;;2523937;54;21680;-84
2023/02/13 14:46:13;;;;;;;20.35;11.38;;;8.40;69.30;;;;;;2524953;54;21987;-85
2023/02/13 14:49:00;;;;;;;18.35;11.60;;;8.40;69.50;;;;;;2522946;53;21781;-83
2023/02/13 14:51:39;;;;;;;18.27;10.57;;;8.40;69.60;;;;;;2290688;54;20978;-83
2023/02/13 14:54:49;;;;;;;16.75;9.70;;;8.30;69.40;;;;;;2290317;54;20926;-84
2023/02/13 14:57:22;;;;;;;17.17;10.18;;;8.30;69.10;;;;;;2523981;53;20938;-84
2023/02/13 14:59:51;;;;;;;21.80;12.02;;;8.30;69.50;;;;;;2523211;54;20925;-84
2023/02/13 15:02:36;;;;;;;18.80;11.57;;;8.30;69.40;;;;;;2523643;53;20917;-84
2023/02/13 15:05:05;;;;;;;16.37;9.85;;;8.20;69.70;;;;;;2523535;54;20898;-85
2023/02/13 15:07:36;;;;;;;18.83;11.10;;;8.20;69.40;;;;;;2289706;54;21702;-82
2023/02/13 15:10:11;;;;;;;19.00;10.50;;;8.20;69.50;;;;;;2290479;54;21893;-84